createdAt,value
2023-02-21T07:13:28.428Z,97397.53
2023-02-21T07:15:31.170Z,97399.75
2023-02-21T07:17:34.147Z,97391.91
2023-02-21T07:19:36.890Z,97394.75
2023-02-21T07:21:39.719Z,97397.91
2023-02-21T07:23:44.492Z,97397.19
2023-02-21T07:25:47.278Z,97398.25
2023-02-21T07:27:50.505Z,97392.69
2023-02-21T07:29:54.670Z,97397.94
2023-02-21T07:31:58.404Z,97392.75
2023-02-21T07:34:01.427Z,97389.13
2023-02-21T07:36:04.404Z,97393.03
2023-02-21T07:38:07.241Z,97400.25
2023-02-21T07:40:11.308Z,97399.06
2023-02-21T07:42:14.328Z,97393.91
2023-02-21T07:44:18.254Z,97400.00
2023-02-21T07:46:28.358Z,97398.81
2023-02-21T07:48:31.280Z,97396.63
2023-02-21T07:50:34.161Z,97394.00
2023-02-21T07:52:37.241Z,97389.25
2023-02-21T07:54:40.068Z,97389.06
2023-02-21T07:56:44.709Z,97386.69
2023-02-21T07:58:47.468Z,97388.31
2023-02-21T08:00:50.614Z,97393.28
2023-02-21T08:02:55.022Z,97385.59
2023-02-21T08:04:58.057Z,97388.25
2023-02-21T08:07:01.142Z,97392.16
2023-02-21T08:09:04.402Z,97392.34
2023-02-21T08:11:07.567Z,97388.53
2023-02-21T08:13:10.245Z,97394.09
2023-02-21T08:15:13.075Z,97383.78
2023-02-21T08:17:16.064Z,97393.00
2023-02-21T08:19:20.529Z,97385.72
2023-02-21T08:21:23.472Z,97389.63
2023-02-21T08:23:26.351Z,97386.97
2023-02-21T08:25:29.122Z,97392.44
2023-02-21T08:27:31.940Z,97381.34
2023-02-21T08:29:37.036Z,97380.97
2023-02-21T08:31:41.637Z,97382.22
2023-02-21T08:33:45.975Z,97375.09
2023-02-21T08:35:50.387Z,97383.53
2023-02-21T08:37:56.969Z,97371.53
2023-02-21T08:40:00.758Z,97374.19
2023-02-21T08:42:03.635Z,97382.56
2023-02-21T08:44:07.435Z,97383.06
2023-02-21T08:46:10.294Z,97377.75
2023-02-21T08:48:13.341Z,97386.13
2023-02-21T08:50:16.337Z,97377.00
2023-02-21T08:52:22.145Z,97372.13
2023-02-21T08:54:24.976Z,97373.81
2023-02-21T08:56:29.268Z,97380.81
2023-02-21T08:58:32.065Z,97377.16
2023-02-21T09:00:34.998Z,97370.22
2023-02-21T09:02:39.936Z,97380.44
2023-02-21T09:04:42.886Z,97375.81
2023-02-21T09:06:45.734Z,97372.16
2023-02-21T09:08:50.172Z,97369.13
2023-02-21T09:10:53.068Z,97367.94
2023-02-21T09:13:00.027Z,97358.16
2023-02-21T09:15:02.850Z,97362.44
2023-02-21T09:17:07.751Z,97355.16
2023-02-21T09:19:13.361Z,97355.97
2023-02-21T09:21:16.538Z,97348.03
2023-02-21T09:23:20.105Z,97344.34
2023-02-21T09:25:26.346Z,97345.81
2023-02-21T09:27:37.352Z,97350.28
2023-02-21T09:29:46.321Z,97355.00
2023-02-21T09:31:50.007Z,97343.25
2023-02-21T09:33:53.063Z,97346.72
2023-02-21T09:35:56.175Z,97344.69
2023-02-21T09:37:59.854Z,97341.84
2023-02-21T09:40:04.515Z,97336.34
2023-02-21T09:42:12.063Z,97332.88
2023-02-21T09:44:18.380Z,97335.34
2023-02-21T09:46:30.853Z,97331.28
2023-02-21T09:48:34.300Z,97330.31
2023-02-21T09:50:42.722Z,97319.69
2023-02-21T09:52:46.032Z,97321.16
2023-02-21T09:54:57.369Z,97320.94
2023-02-21T09:57:12.970Z,97309.16
2023-02-21T09:59:18.447Z,97310.16
2023-02-21T10:01:33.968Z,97312.81
2023-02-21T10:03:47.080Z,97303.03
2023-02-21T10:05:56.477Z,97309.78
2023-02-21T10:08:07.322Z,97311.25
2023-02-21T10:10:15.912Z,97308.59
2023-02-21T10:12:25.475Z,97314.50
2023-02-21T10:14:43.405Z,97308.41
2023-02-21T10:16:54.534Z,97311.88
2023-02-21T10:19:08.282Z,97312.69
2023-02-21T10:21:17.895Z,97305.53
2023-02-21T10:23:26.021Z,97303.53
2023-02-21T10:25:32.447Z,97302.06
2023-02-21T10:27:35.686Z,97307.19
2023-02-21T10:29:47.958Z,97299.84
2023-02-21T10:31:56.392Z,97303.94
2023-02-21T10:33:59.933Z,97301.91
2023-02-21T10:36:02.789Z,97307.69
2023-02-21T10:38:09.551Z,97287.28
2023-02-21T10:40:28.433Z,97284.44
2023-02-21T10:42:39.572Z,97279.56
2023-02-21T10:44:45.429Z,97277.16
2023-02-21T10:46:56.045Z,97266.56
2023-02-21T10:49:24.495Z,97268.00
2023-02-21T10:51:32.861Z,97270.72
2023-02-21T10:53:38.083Z,97264.19
2023-02-21T10:55:41.081Z,97265.81
2023-02-21T10:57:47.054Z,97259.31
2023-02-21T10:59:51.288Z,97246.88
2023-02-21T11:01:56.435Z,97255.44
2023-02-21T11:04:02.126Z,97243.38
2023-02-21T11:06:05.557Z,97235.63
2023-02-21T11:08:10.842Z,97239.09
2023-02-21T11:10:30.171Z,97236.06
2023-02-21T11:12:32.947Z,97224.44
2023-02-21T11:14:36.418Z,97227.47
2023-02-21T11:16:40.770Z,97220.34
2023-02-21T11:18:43.854Z,97219.31
2023-02-21T11:20:48.180Z,97212.38
2023-02-21T11:22:52.772Z,97207.69
2023-02-21T11:25:00.707Z,97203.00
2023-02-21T11:27:03.666Z,97203.44
2023-02-21T11:29:13.371Z,97202.63
2023-02-21T11:31:19.336Z,97204.88
2023-02-21T11:33:24.507Z,97194.91
2023-02-21T11:35:29.784Z,97195.72
2023-02-21T11:37:33.347Z,97189.59
2023-02-21T11:39:36.318Z,97181.88
2023-02-21T11:41:47.606Z,97179.22
2023-02-21T11:43:54.969Z,97177.38
2023-02-21T11:46:18.716Z,97167.59
2023-02-21T11:48:31.161Z,97164.72
2023-02-21T11:50:39.618Z,97158.19
2023-02-21T11:52:50.616Z,97159.44
2023-02-21T11:54:53.389Z,97152.13
2023-02-21T11:57:04.724Z,97146.81
2023-02-21T11:59:17.912Z,97140.47
2023-02-21T12:01:28.746Z,97140.28
2023-02-21T12:03:54.769Z,97131.09
2023-02-21T12:06:04.913Z,97131.72
2023-02-21T12:08:39.125Z,97128.03
2023-02-21T12:10:47.508Z,97123.97
2023-02-21T12:12:57.586Z,97117.44
2023-02-21T12:15:25.254Z,97107.66
2023-02-21T12:17:48.682Z,97105.41
2023-02-21T12:20:09.044Z,97098.25
2023-02-21T12:22:24.476Z,97096.22
2023-02-21T12:24:42.495Z,97102.97
2023-02-21T12:26:54.938Z,97089.31
2023-02-21T12:29:10.952Z,97086.03
2023-02-21T12:31:26.372Z,97083.00
2023-02-21T12:33:42.531Z,97080.16
2023-02-21T12:36:02.263Z,97071.97
2023-02-21T12:38:08.620Z,97075.84
2023-02-21T12:40:21.120Z,97070.16
2023-02-21T12:42:45.985Z,97069.72
2023-02-21T12:45:01.360Z,97060.75
2023-02-21T12:47:10.478Z,97065.63
2023-02-21T12:49:19.210Z,97061.13
2023-02-21T12:51:28.203Z,97057.47
2023-02-21T12:53:36.027Z,97058.69
2023-02-21T12:55:42.767Z,97059.09
2023-02-21T12:57:51.878Z,97050.75
2023-02-21T13:00:07.879Z,97052.16
2023-02-21T13:02:20.017Z,97046.84
2023-02-21T13:04:34.902Z,97038.28
2023-02-21T13:06:47.104Z,97038.28
2023-02-21T13:09:00.599Z,97038.88
2023-02-21T13:11:15.898Z,97029.69
2023-02-21T13:13:23.797Z,97016.41
2023-02-21T13:15:30.213Z,97022.31
2023-02-21T13:17:33.111Z,97023.13
2023-02-21T13:19:43.796Z,97018.44
2023-02-21T13:22:20.991Z,97012.94
2023-02-21T13:24:47.382Z,97011.69
2023-02-21T13:27:08.505Z,97008.81
2023-02-21T13:29:20.466Z,97007.63
2023-02-21T13:31:26.311Z,97002.31
2023-02-21T13:33:38.331Z,96998.00
2023-02-21T13:35:41.449Z,96997.00
2023-02-21T13:37:50.023Z,96991.69
2023-02-21T13:39:58.269Z,96985.53
2023-02-21T13:42:08.081Z,96984.53
2023-02-21T13:44:13.857Z,96978.41
2023-02-21T13:46:59.168Z,96977.38
2023-02-21T13:49:42.700Z,96967.56
2023-02-21T13:51:49.299Z,96962.63
2023-02-21T13:54:11.809Z,96973.66
2023-02-21T13:56:40.924Z,96965.69
2023-02-21T13:58:45.424Z,96969.56
2023-02-21T14:00:51.078Z,96968.53
2023-02-21T14:02:56.849Z,96962.19
2023-02-21T14:05:03.509Z,96962.19
2023-02-21T14:07:07.153Z,96953.22
2023-02-21T14:09:18.729Z,96950.34
2023-02-21T14:11:24.727Z,96942.56
2023-02-21T14:13:34.759Z,96943.38
2023-02-21T14:15:43.185Z,96942.97
2023-02-21T14:17:49.211Z,96934.56
2023-02-21T14:19:54.767Z,96934.16
2023-02-21T14:22:03.953Z,96932.09
2023-02-21T14:24:14.295Z,96926.56
2023-02-21T14:26:43.383Z,96923.69
2023-02-21T14:29:05.385Z,96927.97
2023-02-21T14:31:13.526Z,96918.97
2023-02-21T14:33:25.302Z,96926.94
2023-02-21T14:35:35.285Z,96922.44
2023-02-21T14:37:43.379Z,96918.16
2023-02-21T14:39:49.704Z,96915.50
2023-02-21T14:42:07.994Z,96918.38
2023-02-21T14:44:25.318Z,96916.53
2023-02-21T14:46:48.102Z,96908.34
2023-02-21T14:49:17.276Z,96910.78
2023-02-21T14:52:07.876Z,96912.84
2023-02-21T14:54:37.858Z,96904.88
2023-02-21T14:57:19.506Z,96895.88
2023-02-21T14:59:45.164Z,96911.38
2023-02-21T15:01:59.581Z,96903.63
2023-02-21T15:04:09.841Z,96904.44
2023-02-21T15:06:18.284Z,96894.63
2023-02-21T15:08:23.921Z,96890.97
2023-02-21T15:10:28.548Z,96892.59
2023-02-21T15:12:32.848Z,96889.72
2023-02-21T15:14:41.470Z,96892.59
2023-02-21T15:16:47.496Z,96882.16
2023-02-21T15:19:00.830Z,96885.66
2023-02-21T15:21:08.559Z,96880.34
2023-02-21T15:23:16.938Z,96878.66
2023-02-21T15:25:25.637Z,96877.84
2023-02-21T15:27:28.860Z,96876.00
2023-02-21T15:29:33.334Z,96871.72
2023-02-21T15:31:37.643Z,96873.78
2023-02-21T15:33:43.057Z,96869.50
2023-02-21T15:35:51.869Z,96864.63
2023-02-21T15:37:56.468Z,96861.16
2023-02-21T15:40:05.241Z,96858.50
2023-02-21T15:42:11.633Z,96865.44
2023-02-21T15:44:25.242Z,96861.97
2023-02-21T15:46:33.886Z,96856.66
2023-02-21T15:48:37.398Z,96862.78
2023-02-21T15:50:43.950Z,96864.84
2023-02-21T15:52:51.236Z,96855.25
2023-02-21T15:55:16.419Z,96860.75
2023-02-21T15:57:24.692Z,96864.44
2023-02-21T15:59:29.644Z,96864.44
2023-02-21T16:01:33.874Z,96858.31
2023-02-21T16:03:41.153Z,96862.81
2023-02-21T16:05:44.131Z,96861.78
2023-02-21T16:07:51.365Z,96852.97
2023-02-21T16:10:01.066Z,96863.84
2023-02-21T16:12:07.723Z,96855.47
2023-02-21T16:14:19.752Z,96867.34
2023-02-21T16:16:22.816Z,96864.06
2023-02-21T16:18:27.351Z,96865.31
2023-02-21T16:20:32.812Z,96858.38
2023-02-21T16:22:59.687Z,96856.75
2023-02-21T16:25:25.845Z,96857.97
2023-02-21T16:27:28.646Z,96855.75
2023-02-21T16:29:31.525Z,96846.97
2023-02-21T16:31:36.631Z,96856.75
2023-02-21T16:33:41.207Z,96850.63
2023-02-21T16:35:44.673Z,96848.19
2023-02-21T16:37:51.897Z,96843.09
2023-02-21T16:39:54.998Z,96848.63
2023-02-21T16:41:57.911Z,96847.81
2023-02-21T16:44:00.711Z,96840.06
2023-02-21T16:46:03.529Z,96838.41
2023-02-21T16:48:09.124Z,96837.00
2023-02-21T16:50:18.870Z,96830.03
2023-02-21T16:52:21.930Z,96832.91
2023-02-21T16:54:24.964Z,96828.63
2023-02-21T16:56:27.852Z,96833.94
2023-02-21T16:58:33.167Z,96833.34
2023-02-21T17:00:36.249Z,96836.00
2023-02-21T17:02:39.239Z,96833.56
2023-02-21T17:04:42.113Z,96836.44
2023-02-21T17:06:48.841Z,96839.28
2023-02-21T17:08:51.930Z,96844.59
2023-02-21T17:10:55.077Z,96843.78
2023-02-21T17:12:57.891Z,96838.88
2023-02-21T17:15:00.644Z,96836.06
2023-02-21T17:17:03.566Z,96843.63
2023-02-21T17:19:06.406Z,96840.16
2023-02-21T17:21:09.356Z,96846.47
2023-02-21T17:23:13.563Z,96843.81
2023-02-21T17:25:17.392Z,96844.03
2023-02-21T17:27:20.266Z,96847.69
2023-02-21T17:29:23.348Z,96853.22
2023-02-21T17:31:26.490Z,96860.59
2023-02-21T17:33:29.365Z,96857.56
2023-02-21T17:35:32.341Z,96863.03
2023-02-21T17:37:35.677Z,96861.41
2023-02-21T17:39:39.835Z,96872.44
2023-02-21T17:41:46.858Z,96879.78
2023-02-21T17:43:50.426Z,96879.19
2023-02-21T17:45:53.338Z,96883.03
2023-02-21T17:47:56.145Z,96878.97
2023-02-21T17:50:02.520Z,96883.66
2023-02-21T17:52:06.833Z,96885.50
2023-02-21T17:54:09.881Z,96891.84
2023-02-21T17:56:18.379Z,96886.75
2023-02-21T17:58:21.384Z,96887.56
2023-02-21T18:00:26.535Z,96889.41
2023-02-21T18:02:29.726Z,96886.75
2023-02-21T18:04:32.630Z,96894.72
2023-02-21T18:06:35.657Z,96897.38
2023-02-21T18:08:38.744Z,96894.72
2023-02-21T18:10:46.355Z,96895.72
2023-02-21T18:12:51.559Z,96886.75
2023-02-21T18:14:54.626Z,96892.25
2023-02-21T18:16:58.300Z,96894.91
2023-02-21T18:19:01.169Z,96887.97
2023-02-21T18:21:04.189Z,96889.59
2023-02-21T18:23:07.465Z,96888.78
2023-02-21T18:25:10.473Z,96896.53
2023-02-21T18:27:15.608Z,96892.47
2023-02-21T18:29:19.731Z,96895.72
2023-02-21T18:31:22.624Z,96896.53
2023-02-21T18:33:27.745Z,96894.91
2023-02-21T18:35:30.623Z,96897.38
2023-02-21T18:37:33.452Z,96894.72
2023-02-21T18:39:36.293Z,96895.53
2023-02-21T18:41:39.236Z,96897.38
2023-02-21T18:43:44.035Z,96886.53
2023-02-21T18:45:50.372Z,96890.00
2023-02-21T18:47:53.101Z,96891.63
2023-02-21T18:49:56.743Z,96880.41
2023-02-21T18:52:01.278Z,96880.41
2023-02-21T18:54:04.989Z,96886.75
2023-02-21T18:56:10.529Z,96888.38
2023-02-21T18:58:13.459Z,96886.75
2023-02-21T19:00:18.695Z,96891.25
2023-02-21T19:02:23.365Z,96886.97
2023-02-21T19:04:26.215Z,96885.94
2023-02-21T19:06:29.165Z,96890.44
2023-02-21T19:08:31.921Z,96898.38
2023-02-21T19:10:34.722Z,96894.91
2023-02-21T19:12:37.601Z,96890.44
2023-02-21T19:14:40.382Z,96882.47
2023-02-21T19:16:43.445Z,96877.75
2023-02-21T19:18:50.420Z,96881.44
2023-02-21T19:20:55.267Z,96883.28
2023-02-21T19:22:58.254Z,96882.03
2023-02-21T19:25:01.048Z,96891.63
2023-02-21T19:27:04.068Z,96882.66
2023-02-21T19:29:06.906Z,96883.47
2023-02-21T19:31:11.451Z,96885.50
2023-02-21T19:33:14.244Z,96886.53
2023-02-21T19:35:18.406Z,96892.06
2023-02-21T19:37:21.363Z,96892.06
2023-02-21T19:39:24.226Z,96896.75
2023-02-21T19:41:28.074Z,96899.41
2023-02-21T19:43:30.944Z,96894.91
2023-02-21T19:45:34.184Z,96897.56
2023-02-21T19:47:37.059Z,96899.41
2023-02-21T19:49:39.912Z,96899.19
2023-02-21T19:51:45.165Z,96893.06
2023-02-21T19:53:47.930Z,96899.00
2023-02-21T19:55:50.835Z,96903.47
2023-02-21T19:57:53.616Z,96903.28
2023-02-21T19:59:56.318Z,96902.25
2023-02-21T20:02:00.468Z,96908.78
2023-02-21T20:04:03.939Z,96909.00
2023-02-21T20:06:07.049Z,96907.16
2023-02-21T20:08:11.293Z,96909.00
2023-02-21T20:10:16.077Z,96910.63
2023-02-21T20:12:22.785Z,96909.22
2023-02-21T20:14:25.738Z,96905.09
2023-02-21T20:16:29.433Z,96909.38
2023-02-21T20:18:32.316Z,96900.81
2023-02-21T20:20:35.253Z,96903.47
2023-02-21T20:22:37.874Z,96899.19
2023-02-21T20:24:45.850Z,96905.53
2023-02-21T20:26:51.256Z,96904.91
2023-02-21T20:28:55.867Z,96905.94
2023-02-21T20:30:58.918Z,96899.22
2023-02-21T20:33:02.260Z,96897.59
2023-02-21T20:35:06.772Z,96894.28
2023-02-21T20:37:11.092Z,96891.66
2023-02-21T20:39:20.004Z,96888.59
2023-02-21T20:41:24.240Z,96901.25
2023-02-21T20:43:27.387Z,96888.19
2023-02-21T20:45:30.207Z,96887.38
2023-02-21T20:47:34.169Z,96893.88
2023-02-21T20:49:37.037Z,96894.91
2023-02-21T20:51:39.916Z,96893.06
2023-02-21T20:53:43.973Z,96894.91
2023-02-21T20:55:46.980Z,96891.44
2023-02-21T20:57:51.185Z,96885.53
2023-02-21T20:59:53.922Z,96887.38
2023-02-21T21:01:57.983Z,96890.03
2023-02-21T21:04:02.159Z,96888.38
2023-02-21T21:06:10.149Z,96889.22
2023-02-21T21:08:13.129Z,96884.94
2023-02-21T21:10:17.184Z,96892.88
2023-02-21T21:12:22.299Z,96893.91
2023-02-21T21:14:26.658Z,96889.00
2023-02-21T21:16:30.016Z,96890.00
2023-02-21T21:18:32.883Z,96891.25
2023-02-21T21:20:38.753Z,96889.81
2023-02-21T21:22:42.581Z,96894.50
2023-02-21T21:24:45.458Z,96888.41
2023-02-21T21:26:53.068Z,96882.28
2023-02-21T21:28:56.032Z,96884.13
